University Park, New Mexico
Current Conditions -  °F | °C
As of 1:55 PM on Thursday 27 Nov 2014 (Local Time) from KLRU Reporting Station
Clear Clear  
Wind Chill: 65°   Ceiling: Unl
Heat Index: 65°   Visibility: 10mi
Dew Point: 22°   Wind: 0mph
Humidity: 19%   Direction: NA
Pressure: 30.33"   Gusts: NA
Location:  32.2825°N, 106.737°W
Report Text: KLRU 272055Z AUTO 00000KT 10SM CLR 19/M06 A3033 RMK AO2 T01861057
Loading
Personal Weather Stations






























Interactive Weather Map New forecast layout! Learn more

10-Day Weather Forecast

Advertisements
Track Severe Weather on mobile